Terminal Aerodrome Forecast
Issued by NWS

Home | Current Version | Previous Version | Text Only | Print | Product List | Glossary On
Versions: 1 2 3 4 5 6 7 8 9 10 11 12 13
000
FTUS45 KVEF 041700
TAFDAG
TAF
KDAG 041736Z 0418/0518 03008KT P6SM SKC
     FM041900 05006KT P6SM SKC
     FM050400 27005KT P6SM SKC=

USA.gov is the U.S. government's official web portal to all federal, state and local government web resources and services.